Time;durP1;ratioP1;P1;durP2;ratioP2;P2;SDS_P1;SDS_P2;PMS_P1;PMS_P2;Temp;Humidity;BMP_temperature;BMP_pressure;BME280_temperature;BME280_humidity;BME280_pressure;Samples;Min_cycle;Max_cycle;Signal;HPM_P1;HPM_P2
2022/03/10 00:02:16;;;;;;;41.30;22.43;;;;;;;2.20;88.46;99864.34;5050912;28;20188;-59
2022/03/10 00:04:42;;;;;;;32.27;21.27;;;;;;;2.16;88.10;99870.06;5068669;28;20196;-60
2022/03/10 00:07:11;;;;;;;34.17;20.53;;;;;;;2.11;87.41;99863.00;5071037;28;20203;-60
2022/03/10 00:09:38;;;;;;;33.23;19.73;;;;;;;2.11;86.05;99863.00;5070290;28;20191;-59
2022/03/10 00:12:05;;;;;;;29.93;17.67;;;;;;;2.07;84.89;99872.06;5070518;28;21026;-60
2022/03/10 00:14:32;;;;;;;31.33;17.00;;;;;;;2.12;84.34;99858.00;5070724;28;20638;-59
2022/03/10 00:16:59;;;;;;;27.10;15.60;;;;;;;2.03;82.49;99872.72;5070651;28;20199;-60
2022/03/10 00:19:26;;;;;;;26.73;15.83;;;;;;;1.77;82.05;99824.78;5058503;28;20200;-59
2022/03/10 00:21:53;;;;;;;22.93;14.60;;;;;;;2.03;82.05;99869.31;5050798;28;20597;-59
2022/03/10 00:24:22;;;;;;;25.23;15.50;;;;;;;2.14;80.62;99874.16;5050945;28;20235;-59
2022/03/10 00:26:48;;;;;;;20.37;13.60;;;;;;;2.20;80.37;99869.41;5050166;28;20655;-59
2022/03/10 00:29:16;;;;;;;23.20;14.40;;;;;;;2.23;78.42;99877.19;5050011;28;20242;-59
2022/03/10 00:31:43;;;;;;;18.03;12.57;;;;;;;2.30;77.68;99873.34;5050258;28;20721;-59
2022/03/10 00:34:10;;;;;;;21.27;13.40;;;;;;;2.27;77.23;99863.03;5050116;28;20204;-59
2022/03/10 00:36:37;;;;;;;19.10;12.60;;;;;;;2.32;75.13;99869.22;5050358;28;20188;-59
2022/03/10 00:39:05;;;;;;;16.17;11.77;;;;;;;2.07;74.51;99834.06;5050490;28;20284;-59
2022/03/10 00:41:33;;;;;;;20.30;11.57;;;;;;;2.27;74.02;99873.19;5042616;28;20210;-59
2022/03/10 00:44:00;;;;;;;15.77;12.82;;;;;;;2.30;72.93;99865.75;5029246;28;20439;-59
2022/03/10 00:46:27;;;;;;;15.60;11.27;;;;;;;2.29;72.16;99864.88;5030137;28;20678;-59
2022/03/10 00:48:53;;;;;;;14.90;11.07;;;;;;;2.30;71.94;99873.34;5030076;28;20193;-59
2022/03/10 00:51:20;;;;;;;14.70;10.13;;;;;;;2.30;72.28;99863.22;5029988;28;20568;-59
2022/03/10 00:53:47;;;;;;;12.13;9.93;;;;;;;2.31;72.01;99860.75;5029924;28;20312;-59
2022/03/10 00:56:15;;;;;;;16.27;10.83;;;;;;;2.33;72.24;99866.75;5029899;28;20193;-59
2022/03/10 00:58:43;;;;;;;14.83;9.83;;;;;;;2.38;72.02;99869.56;5042856;28;20621;-59
2022/03/10 01:01:10;;;;;;;13.20;9.67;;;;;;;2.30;72.39;99865.75;5049823;28;20283;-58
2022/03/10 01:03:37;;;;;;;16.37;9.47;;;;;;;2.14;71.84;99861.47;5050286;28;20196;-58
2022/03/10 01:06:04;;;;;;;15.25;11.52;;;;;;;2.10;72.05;99856.16;5049295;28;20443;-58
2022/03/10 01:08:31;;;;;;;13.10;10.00;;;;;;;2.21;72.56;99855.97;5049731;28;20195;-58
2022/03/10 01:10:58;;;;;;;14.33;9.83;;;;;;;2.16;72.23;99844.72;5049902;28;20249;-59
2022/03/10 01:13:25;;;;;;;11.80;9.20;;;;;;;2.15;71.84;99845.50;5049779;28;20226;-58
2022/03/10 01:15:53;;;;;;;11.67;8.57;;;;;;;2.15;71.59;99849.69;5049845;28;20279;-58
2022/03/10 01:18:20;;;;;;;13.23;9.23;;;;;;;2.10;71.58;99851.97;5049659;28;20194;-58
2022/03/10 01:20:47;;;;;;;19.37;10.80;;;;;;;2.21;71.91;99853.44;5051648;28;20192;-58
2022/03/10 01:23:14;;;;;;;14.53;9.60;;;;;;;2.16;71.54;99851.44;5053858;28;20279;-58
2022/03/10 01:25:41;;;;;;;13.77;10.57;;;;;;;2.26;71.44;99848.59;5053681;28;20203;-59
2022/03/10 01:28:08;;;;;;;12.10;9.13;;;;;;;2.20;69.84;99849.16;5053419;28;20203;-58
2022/03/10 01:30:36;;;;;;;12.70;8.10;;;;;;;2.14;69.03;99848.81;5053454;28;20315;-59
2022/03/10 01:33:04;;;;;;;8.53;6.47;;;;;;;2.13;66.07;99844.53;5053673;28;20323;-59
2022/03/10 01:35:31;;;;;;;8.93;7.20;;;;;;;2.05;65.19;99858.47;5053619;28;20197;-58
2022/03/10 01:37:58;;;;;;;8.50;6.67;;;;;;;2.06;65.55;99854.28;5053207;28;20551;-58
2022/03/10 01:40:25;;;;;;;9.83;7.30;;;;;;;2.12;65.83;99854.59;5053038;28;20203;-59
2022/03/10 01:42:52;;;;;;;9.17;6.70;;;;;;;2.20;65.72;99858.41;5053369;28;20575;-59
2022/03/10 01:45:20;;;;;;;8.23;6.70;;;;;;;2.23;65.98;99849.31;5053611;28;20193;-58
2022/03/10 01:47:46;;;;;;;8.83;7.43;;;;;;;2.19;65.16;99854.16;5052885;28;20286;-59
2022/03/10 01:50:16;;;;;;;9.70;7.90;;;;;;;2.23;65.49;99851.84;5053188;28;20668;-58
2022/03/10 01:52:43;;;;;;;9.33;7.07;;;;;;;2.23;65.13;99853.50;5053116;28;20816;-59
2022/03/10 01:55:11;;;;;;;10.57;7.43;;;;;;;2.21;63.97;99850.03;5053292;28;20211;-58
2022/03/10 01:57:38;;;;;;;13.17;8.90;;;;;;;2.20;63.97;99848.28;5053153;28;20662;-58
2022/03/10 02:00:07;;;;;;;9.73;7.33;;;;;;;2.12;63.15;99854.59;5052851;28;20725;-59
2022/03/10 02:02:34;;;;;;;10.83;7.50;;;;;;;2.05;63.34;99857.59;5053005;28;20218;-58
2022/03/10 02:05:01;;;;;;;11.33;8.10;;;;;;;2.11;63.05;99855.41;5052936;28;20644;-59
2022/03/10 02:10:17;;;;;;;11.20;7.63;;;;;;;2.25;63.15;99844.34;5053029;28;20214;-60
2022/03/10 02:12:45;;;;;;;8.80;6.57;;;;;;;2.32;63.04;99851.47;5052814;28;20220;-59
2022/03/10 02:17:59;;;;;;;10.55;8.77;;;;;;;2.48;62.77;99838.84;5051580;28;20979;-60
2022/03/10 02:20:26;;;;;;;9.23;7.20;;;;;;;2.56;61.82;99851.91;5050728;28;20199;-59
2022/03/10 02:22:55;;;;;;;7.77;6.63;;;;;;;2.35;61.61;99826.28;5052100;28;20193;-58
2022/03/10 02:25:23;;;;;;;8.73;7.07;;;;;;;2.44;62.17;99849.63;5049797;28;20195;-60
2022/03/10 02:27:51;;;;;;;7.37;5.93;;;;;;;2.38;61.95;99854.34;5051834;28;20193;-57
2022/03/10 02:30:19;;;;;;;8.50;6.63;;;;;;;2.23;62.40;99823.97;5051913;28;20216;-59
2022/03/10 02:32:47;;;;;;;7.47;6.53;;;;;;;2.41;63.24;99854.53;5051574;28;20271;-59
2022/03/10 02:35:15;;;;;;;7.40;6.53;;;;;;;2.38;62.44;99850.16;5044024;28;20217;-58
2022/03/10 02:37:42;;;;;;;8.33;6.43;;;;;;;2.43;61.95;99852.94;5049586;28;20263;-59
2022/03/10 02:40:12;;;;;;;9.95;8.23;;;;;;;2.44;61.89;99853.81;5051324;28;20443;-59
2022/03/10 02:42:39;;;;;;;11.87;7.67;;;;;;;2.58;61.66;99853.75;5051511;28;20571;-59
2022/03/10 02:45:09;;;;;;;10.70;7.20;;;;;;;2.60;62.06;99859.78;5051571;28;20583;-59
2022/03/10 02:47:35;;;;;;;10.97;7.23;;;;;;;2.46;61.83;99842.06;5051744;28;20200;-59
2022/03/10 02:50:06;;;;;;;9.27;7.80;;;;;;;2.53;63.04;99862.75;5051818;28;20196;-59
2022/03/10 02:52:34;;;;;;;9.83;7.83;;;;;;;2.54;62.67;99858.56;5052220;28;20204;-58
2022/03/10 02:55:01;;;;;;;9.87;7.53;;;;;;;2.48;62.28;99865.84;5051664;28;20210;-59
2022/03/10 02:57:31;;;;;;;8.63;6.83;;;;;;;2.27;62.62;99835.16;5034101;28;20198;-59
2022/03/10 02:59:58;;;;;;;9.73;7.17;;;;;;;2.41;63.30;99869.72;5031715;28;20193;-59
2022/03/10 03:02:25;;;;;;;10.67;7.50;;;;;;;2.38;63.16;99867.03;5043026;28;20207;-59
2022/03/10 03:04:53;;;;;;;7.93;6.50;;;;;;;2.30;63.06;99866.63;5046840;28;20232;-58
2022/03/10 03:07:19;;;;;;;11.65;7.55;;;;;;;2.22;63.35;99867.00;5031605;28;20532;-65
2022/03/10 03:09:46;;;;;;;9.20;6.73;;;;;;;2.28;63.27;99875.78;5032085;28;20287;-59
2022/03/10 03:12:13;;;;;;;10.53;6.77;;;;;;;2.27;63.66;99883.31;5031743;28;20197;-59
2022/03/10 03:14:42;;;;;;;9.60;6.60;;;;;;;2.27;63.65;99880.78;5031560;28;20256;-58
2022/03/10 03:17:09;;;;;;;10.32;8.27;;;;;;;2.11;63.76;99835.13;5030466;28;20444;-59
2022/03/10 03:19:36;;;;;;;8.63;6.67;;;;;;;2.31;62.83;99870.88;5031453;28;20225;-58
2022/03/10 03:22:04;;;;;;;8.77;6.57;;;;;;;2.16;63.25;99872.59;5031617;28;20200;-58
2022/03/10 03:24:31;;;;;;;8.57;7.10;;;;;;;2.11;63.54;99879.06;5031563;28;20192;-59
2022/03/10 03:26:58;;;;;;;11.40;7.57;;;;;;;2.15;64.18;99887.69;5037565;28;20291;-58
2022/03/10 03:29:25;;;;;;;8.97;6.53;;;;;;;2.13;64.39;99884.22;5051406;28;20274;-59
2022/03/10 03:31:54;;;;;;;8.80;7.13;;;;;;;1.86;63.62;99844.69;5051222;28;20196;-59
2022/03/10 03:34:21;;;;;;;8.60;6.60;;;;;;;1.99;64.21;99883.44;5051079;28;20220;-58
2022/03/10 03:36:48;;;;;;;9.03;6.63;;;;;;;1.88;64.07;99870.97;5051257;28;20590;-59
2022/03/10 03:39:15;;;;;;;8.17;6.63;;;;;;;1.92;64.25;99886.44;5051295;28;20193;-59
2022/03/10 03:41:42;;;;;;;8.60;7.33;;;;;;;1.96;64.42;99884.94;5051050;28;20208;-59
2022/03/10 03:44:10;;;;;;;7.97;6.40;;;;;;;2.02;64.43;99888.69;5050340;28;20188;-58
2022/03/10 03:46:37;;;;;;;8.27;6.23;;;;;;;1.93;63.37;99888.16;5051093;28;20315;-58
2022/03/10 03:49:05;;;;;;;8.07;6.20;;;;;;;1.91;63.44;99889.75;5051206;28;20188;-58
2022/03/10 03:51:32;;;;;;;7.93;5.90;;;;;;;1.88;63.75;99894.66;5051151;28;20199;-58
2022/03/10 03:53:59;;;;;;;13.23;7.33;;;;;;;1.85;63.23;99897.00;5050797;28;20216;-59
2022/03/10 03:56:26;;;;;;;11.27;7.10;;;;;;;1.85;62.94;99898.66;5050797;28;20201;-59
2022/03/10 03:58:53;;;;;;;11.47;7.90;;;;;;;1.92;63.39;99905.84;5051185;28;20206;-59
2022/03/10 04:01:20;;;;;;;8.63;6.70;;;;;;;1.77;62.66;99901.63;5051111;28;20672;-59
2022/03/10 04:03:47;;;;;;;8.03;6.83;;;;;;;1.72;62.80;99910.63;5051067;28;20189;-58
2022/03/10 04:06:16;;;;;;;10.17;7.83;;;;;;;1.66;63.26;99911.94;5050754;28;20315;-58
2022/03/10 04:08:43;;;;;;;10.43;7.67;;;;;;;1.63;63.59;99917.69;5050614;28;20196;-58
2022/03/10 04:11:09;;;;;;;15.97;11.63;;;;;;;1.57;63.64;99912.28;5047965;28;20568;-59
2022/03/10 04:13:37;;;;;;;16.60;11.38;;;;;;;1.62;64.22;99912.56;5048649;28;20451;-58
2022/03/10 04:16:04;;;;;;;9.37;7.67;;;;;;;1.64;63.66;99916.03;5049335;28;20663;-58
2022/03/10 04:18:32;;;;;;;9.40;7.60;;;;;;;1.57;63.12;99912.28;5049205;28;20207;-59
2022/03/10 04:20:59;;;;;;;8.33;6.83;;;;;;;1.63;63.19;99922.75;5050595;28;20211;-59
2022/03/10 04:23:27;;;;;;;8.37;6.97;;;;;;;1.55;63.04;99925.63;5050302;28;20223;-59
2022/03/10 04:25:54;;;;;;;7.97;6.37;;;;;;;1.48;63.49;99929.47;5049616;28;20219;-59
2022/03/10 04:28:22;;;;;;;8.53;6.90;;;;;;;1.53;63.83;99938.22;5050542;28;20199;-59
2022/03/10 04:30:50;;;;;;;11.43;7.73;;;;;;;1.49;63.33;99935.41;5049698;28;20231;-59
2022/03/10 04:33:17;;;;;;;10.77;7.43;;;;;;;1.57;64.13;99935.06;5049839;28;20723;-59
2022/03/10 04:35:44;;;;;;;10.98;8.38;;;;;;;1.64;64.24;99947.31;5049879;28;20445;-59
2022/03/10 04:38:11;;;;;;;11.73;8.67;;;;;;;1.74;64.24;99953.78;5050326;28;20188;-59
2022/03/10 04:40:40;;;;;;;8.30;7.23;;;;;;;1.87;63.72;99950.31;5050361;28;20677;-60
2022/03/10 04:43:07;;;;;;;11.57;7.70;;;;;;;1.90;63.30;99961.47;5036785;28;20200;-59
2022/03/10 04:45:34;;;;;;;10.20;7.87;;;;;;;1.94;63.74;99968.47;5050161;28;20283;-59
2022/03/10 04:48:02;;;;;;;11.00;7.77;;;;;;;1.92;63.32;99971.69;5049634;28;20552;-59
2022/03/10 04:50:30;;;;;;;21.27;12.10;;;;;;;1.91;63.32;99975.88;5049263;28;20192;-59
2022/03/10 04:52:57;;;;;;;27.20;15.00;;;;;;;1.93;63.04;99981.03;5050175;28;20203;-59
2022/03/10 04:55:24;;;;;;;10.83;9.00;;;;;;;1.95;62.98;99976.94;5049644;28;20216;-59
2022/03/10 04:57:53;;;;;;;11.87;8.90;;;;;;;1.93;62.31;99991.16;5050039;28;20231;-59
2022/03/10 05:00:19;;;;;;;9.43;7.90;;;;;;;1.97;62.03;99988.03;5050347;28;20198;-59
2022/03/10 05:02:48;;;;;;;11.73;8.20;;;;;;;1.96;62.05;99988.81;5049995;28;20188;-58
2022/03/10 05:05:15;;;;;;;12.87;9.17;;;;;;;1.94;61.46;99990.38;5041520;28;20209;-58
2022/03/10 05:07:42;;;;;;;10.93;9.40;;;;;;;1.98;61.54;100000.78;5050274;28;20184;-58
2022/03/10 05:10:12;;;;;;;10.00;8.23;;;;;;;2.06;61.33;99993.66;5050076;28;20287;-58
2022/03/10 05:12:47;;;;;;;9.87;8.00;;;;;;;2.15;61.27;99997.56;5049995;28;20230;-58
2022/03/10 05:15:18;;;;;;;11.67;8.27;;;;;;;2.20;60.65;99996.16;5049670;28;20211;-58
2022/03/10 05:17:45;;;;;;;17.27;10.00;;;;;;;2.17;60.30;100003.59;5049824;28;20188;-58
2022/03/10 05:20:12;;;;;;;12.67;9.03;;;;;;;2.12;59.50;100009.16;5050127;28;20211;-58
2022/03/10 05:22:48;;;;;;;12.30;9.57;;;;;;;2.04;59.76;100013.81;5049964;28;20200;-59
2022/03/10 05:25:16;;;;;;;13.53;9.83;;;;;;;2.07;60.27;100014.00;5049909;28;20670;-57
2022/03/10 05:27:43;;;;;;;16.33;10.70;;;;;;;2.07;60.31;100023.25;5049588;28;20192;-58
2022/03/10 05:30:11;;;;;;;12.03;9.17;;;;;;;2.09;60.90;100024.19;5049524;28;20223;-58
2022/03/10 05:32:40;;;;;;;12.13;8.43;;;;;;;2.14;60.46;100022.84;5049983;28;20201;-59
2022/03/10 05:35:08;;;;;;;13.10;8.87;;;;;;;2.21;60.67;100024.91;5054059;28;20227;-59
2022/03/10 05:37:38;;;;;;;11.97;8.63;;;;;;;2.22;60.75;100024.13;5048842;28;20209;-59
2022/03/10 05:40:07;;;;;;;17.43;8.93;;;;;;;2.21;60.76;100032.53;5049443;28;20664;-60
2022/03/10 05:42:34;;;;;;;12.23;7.70;;;;;;;2.29;60.63;100037.25;5049285;28;20284;-59
2022/03/10 05:45:01;;;;;;;9.50;6.73;;;;;;;2.26;60.00;100037.06;5049857;28;20263;-59
2022/03/10 05:47:28;;;;;;;13.70;6.90;;;;;;;2.29;59.96;100033.84;5049852;28;20201;-59
2022/03/10 05:49:56;;;;;;;11.87;8.53;;;;;;;2.39;59.72;100038.63;5049326;28;20284;-59
2022/03/10 05:52:23;;;;;;;10.97;8.20;;;;;;;2.33;58.99;100033.25;5049258;28;20283;-60
2022/03/10 05:54:50;;;;;;;16.97;8.50;;;;;;;2.49;59.08;100045.09;5049270;28;20310;-60
2022/03/10 05:57:17;;;;;;;12.20;7.43;;;;;;;2.51;59.33;100049.47;5047736;28;20201;-59
2022/03/10 05:59:44;;;;;;;9.93;7.83;;;;;;;2.53;58.58;100041.97;5047507;28;20195;-59
2022/03/10 06:02:10;;;;;;;20.00;8.27;;;;;;;2.60;59.18;100049.13;5049389;28;20586;-59
2022/03/10 06:04:37;;;;;;;11.70;8.60;;;;;;;2.65;59.42;100053.66;5049592;28;20183;-59
2022/03/10 06:07:06;;;;;;;8.57;7.23;;;;;;;2.60;58.81;100050.00;5050906;28;20288;-59
2022/03/10 06:09:33;;;;;;;11.43;8.47;;;;;;;2.66;56.97;100054.56;5052213;28;20803;-59
2022/03/10 06:12:00;;;;;;;10.50;7.50;;;;;;;2.68;55.69;100058.03;5053169;28;20200;-59
2022/03/10 06:14:26;;;;;;;9.80;7.03;;;;;;;2.73;55.76;100062.59;5052527;28;20358;-59
2022/03/10 06:16:54;;;;;;;10.70;7.10;;;;;;;2.75;55.62;100055.91;5051896;28;20199;-59
2022/03/10 06:19:21;;;;;;;10.03;8.97;;;;;;;2.70;58.64;100059.88;5050872;28;20196;-59
2022/03/10 06:21:48;;;;;;;16.10;9.60;;;;;;;2.61;63.35;100051.72;5052635;28;20192;-60
2022/03/10 06:24:16;;;;;;;10.73;8.27;;;;;;;2.58;65.34;100056.66;5052446;28;20206;-59
2022/03/10 06:26:43;;;;;;;12.50;9.77;;;;;;;2.53;65.77;100058.03;5052453;28;20287;-59
2022/03/10 06:29:13;;;;;;;13.60;9.67;;;;;;;2.56;66.57;100057.34;5048991;28;20232;-59
2022/03/10 06:31:40;;;;;;;11.80;9.17;;;;;;;2.34;68.30;100048.53;5051132;28;20185;-57
2022/03/10 06:34:07;;;;;;;12.40;9.40;;;;;;;2.42;70.20;100061.63;5049424;28;20213;-58
2022/03/10 06:36:34;;;;;;;11.33;9.23;;;;;;;2.39;70.91;100066.53;5051940;28;20192;-58
2022/03/10 06:39:01;;;;;;;12.83;9.77;;;;;;;2.36;70.71;100064.69;5051619;28;20188;-58
2022/03/10 06:41:29;;;;;;;13.80;10.55;;;;;;;2.38;69.72;100069.88;5048591;28;20892;-58
2022/03/10 06:43:56;;;;;;;19.70;11.40;;;;;;;2.41;70.46;100072.56;5051093;28;20279;-59
2022/03/10 06:46:24;;;;;;;12.77;10.57;;;;;;;2.48;71.07;100074.66;5051167;28;20195;-58
2022/03/10 06:48:50;;;;;;;11.77;9.50;;;;;;;2.41;70.51;100074.22;5051417;28;20185;-57
2022/03/10 06:51:17;;;;;;;13.30;9.80;;;;;;;2.24;70.96;100071.59;5051232;28;20202;-58
2022/03/10 06:53:44;;;;;;;13.93;10.17;;;;;;;2.19;71.66;100082.25;5050952;28;20192;-58
2022/03/10 06:56:11;;;;;;;12.13;9.70;;;;;;;2.13;72.09;100081.91;5051281;28;20291;-57
2022/03/10 06:58:40;;;;;;;14.27;10.03;;;;;;;2.09;71.14;100078.31;5049539;28;20283;-57
2022/03/10 07:01:07;;;;;;;15.00;10.13;;;;;;;2.16;70.40;100089.69;5051306;28;20285;-57
2022/03/10 07:03:33;;;;;;;15.10;9.87;;;;;;;2.20;70.47;100086.53;5051286;28;20198;-57
2022/03/10 07:06:00;;;;;;;12.77;10.33;;;;;;;2.26;71.12;100084.34;5049348;28;20197;-57
2022/03/10 07:08:27;;;;;;;14.33;10.87;;;;;;;2.20;70.40;100086.53;5050131;28;20185;-58
2022/03/10 07:10:54;;;;;;;13.40;9.03;;;;;;;2.20;68.04;100094.13;5050692;28;20189;-57
2022/03/10 07:13:22;;;;;;;14.47;9.80;;;;;;;2.23;69.08;100085.06;5049788;28;20193;-56
2022/03/10 07:15:50;;;;;;;11.10;8.27;;;;;;;2.25;69.93;100096.16;5049143;28;20202;-56
2022/03/10 07:18:17;;;;;;;19.57;8.27;;;;;;;2.21;68.75;100098.44;5049228;28;20270;-58
2022/03/10 07:20:44;;;;;;;15.73;8.67;;;;;;;2.18;69.93;100098.25;5050088;28;20303;-58
2022/03/10 07:23:11;;;;;;;12.10;9.10;;;;;;;2.24;69.79;100102.03;5049134;28;20285;-58
2022/03/10 07:25:38;;;;;;;11.17;8.70;;;;;;;2.24;70.00;100096.94;5050782;28;20722;-57
2022/03/10 07:28:05;;;;;;;14.87;9.40;;;;;;;2.27;70.21;100093.72;5050223;28;20651;-57
2022/03/10 07:30:32;;;;;;;10.80;9.00;;;;;;;2.32;69.86;100090.66;5050274;28;20613;-57
2022/03/10 07:33:01;;;;;;;10.43;8.50;;;;;;;2.30;70.36;100089.72;5050146;28;20223;-58
2022/03/10 07:35:28;;;;;;;13.60;10.23;;;;;;;2.36;69.56;100094.25;5050314;28;20212;-57
2022/03/10 07:37:58;;;;;;;14.53;10.60;;;;;;;2.48;69.49;100091.53;5050159;28;20192;-57
2022/03/10 07:40:25;;;;;;;17.33;9.80;;;;;;;2.55;67.68;100086.03;5050000;28;20196;-57
2022/03/10 07:42:52;;;;;;;12.60;9.38;;;;;;;2.52;66.58;100089.28;5049002;28;20557;-57
2022/03/10 07:45:19;;;;;;;12.70;9.93;;;;;;;2.57;66.67;100079.38;5050027;28;20188;-58
2022/03/10 07:47:46;;;;;;;18.43;12.10;;;;;;;2.57;67.74;100070.13;5050256;28;20200;-57
2022/03/10 07:50:15;;;;;;;12.63;9.00;;;;;;;2.61;65.37;100077.09;5057569;28;20193;-59
2022/03/10 07:52:42;;;;;;;16.00;11.07;;;;;;;2.71;64.77;100073.44;5043217;28;20624;-56
2022/03/10 07:55:13;;;;;;;13.73;10.13;;;;;;;2.94;63.18;100078.97;5047173;28;20727;-60
2022/03/10 07:57:40;;;;;;;16.80;12.43;;;;;;;2.87;61.75;100081.09;5050236;28;20188;-60
2022/03/10 08:00:08;;;;;;;13.60;9.20;;;;;;;2.71;61.92;100075.97;5050089;28;20246;-61
2022/03/10 08:02:35;;;;;;;8.43;7.30;;;;;;;2.66;61.68;100082.44;5047892;28;20674;-63
2022/03/10 08:05:02;;;;;;;8.97;7.33;;;;;;;2.73;61.14;100076.91;5050421;28;20220;-59
2022/03/10 08:07:32;;;;;;;10.23;7.67;;;;;;;2.89;61.25;100076.97;5048379;28;20234;-60
2022/03/10 08:09:59;;;;;;;10.60;7.67;;;;;;;3.00;60.81;100068.28;5050020;28;20214;-60
2022/03/10 08:12:28;;;;;;;8.70;7.70;;;;;;;3.20;60.99;100071.94;5050006;28;20250;-60
2022/03/10 08:14:55;;;;;;;9.30;7.30;;;;;;;3.23;60.60;100061.94;5050465;28;20212;-60
2022/03/10 08:17:22;;;;;;;10.40;7.90;;;;;;;3.46;60.30;100064.91;5048539;28;20275;-60
2022/03/10 08:19:49;;;;;;;10.82;9.02;;;;;;;3.49;58.92;100067.63;5048418;28;20435;-60
2022/03/10 08:22:16;;;;;;;8.90;8.00;;;;;;;3.56;59.18;100068.81;5049869;28;20571;-60
2022/03/10 08:24:45;;;;;;;9.33;8.33;;;;;;;3.56;59.86;100074.78;5048544;28;20188;-61
2022/03/10 08:27:12;;;;;;;9.63;7.20;;;;;;;3.53;57.79;100072.06;5049700;28;20201;-61
2022/03/10 08:29:39;;;;;;;11.80;8.27;;;;;;;3.60;59.32;100080.88;5049424;28;20312;-61
2022/03/10 08:32:07;;;;;;;10.00;7.67;;;;;;;3.66;57.24;100081.22;5046979;28;20202;-61
2022/03/10 08:34:35;;;;;;;10.47;7.70;;;;;;;3.74;58.08;100079.06;5049769;28;20287;-60
2022/03/10 08:37:02;;;;;;;8.30;6.90;;;;;;;3.71;57.05;100072.16;5049482;28;20271;-61
2022/03/10 08:39:29;;;;;;;9.30;7.65;;;;;;;3.83;55.91;100072.81;5048647;28;20518;-61
2022/03/10 08:41:57;;;;;;;8.17;7.00;;;;;;;3.85;53.75;100070.31;5049925;28;20193;-61
2022/03/10 08:44:24;;;;;;;9.43;7.03;;;;;;;3.80;54.68;100075.19;5048850;28;20196;-61
2022/03/10 08:46:51;;;;;;;9.27;7.20;;;;;;;3.86;53.91;100072.09;5049399;28;20632;-61
2022/03/10 08:49:18;;;;;;;10.27;7.40;;;;;;;3.97;52.51;100079.47;5047930;28;20193;-60
2022/03/10 08:51:45;;;;;;;8.83;6.17;;;;;;;3.89;51.58;100085.84;5048426;28;20282;-59
2022/03/10 08:54:13;;;;;;;7.83;5.17;;;;;;;3.92;49.97;100087.66;5049208;28;20285;-60
2022/03/10 08:56:41;;;;;;;8.37;6.70;;;;;;;3.95;50.71;100083.63;5049599;28;20218;-61
2022/03/10 08:59:09;;;;;;;8.93;6.17;;;;;;;3.97;49.31;100083.69;5045769;28;20203;-60
2022/03/10 09:01:36;;;;;;;5.77;5.20;;;;;;;4.02;47.48;100077.16;5047465;28;20279;-60
2022/03/10 09:04:03;;;;;;;6.67;5.97;;;;;;;4.04;47.44;100078.97;5048894;28;20279;-60
2022/03/10 09:06:30;;;;;;;6.87;5.73;;;;;;;4.25;47.33;100081.75;5049184;28;20558;-61
2022/03/10 09:08:57;;;;;;;6.77;4.80;;;;;;;4.24;44.20;100080.00;5049433;28;20650;-60
2022/03/10 09:11:24;;;;;;;5.90;5.30;;;;;;;4.44;47.04;100081.00;5049607;28;20193;-60
2022/03/10 09:13:51;;;;;;;8.10;5.93;;;;;;;4.54;46.42;100086.59;5049684;28;20653;-59
2022/03/10 09:16:21;;;;;;;8.70;5.43;;;;;;;4.58;45.16;100085.97;5049527;28;20276;-60
2022/03/10 09:18:49;;;;;;;7.13;6.18;;;;;;;4.71;45.57;100074.69;5049107;28;20446;-59
2022/03/10 09:21:17;;;;;;;6.07;5.30;;;;;;;4.69;46.48;100082.28;5049255;28;20198;-60
2022/03/10 09:23:44;;;;;;;8.17;5.67;;;;;;;4.71;46.94;100079.78;5049352;28;20196;-60
2022/03/10 09:26:11;;;;;;;7.30;6.00;;;;;;;4.88;45.16;100084.03;5049500;28;20627;-60
2022/03/10 09:28:38;;;;;;;7.33;6.40;;;;;;;4.93;45.77;100076.59;5047468;28;20204;-58
2022/03/10 09:31:05;;;;;;;8.03;6.50;;;;;;;4.95;45.15;100078.41;5048997;28;20301;-57
2022/03/10 09:33:33;;;;;;;7.17;6.47;;;;;;;5.02;44.83;100085.56;5048573;28;20270;-58
2022/03/10 09:36:01;;;;;;;8.73;7.55;;;;;;;4.98;45.91;100078.56;5047961;28;20965;-57
2022/03/10 09:38:27;;;;;;;8.03;6.57;;;;;;;4.99;45.08;100087.97;5049535;28;20193;-56
2022/03/10 09:40:54;;;;;;;7.17;6.43;;;;;;;5.18;44.17;100076.97;5049737;28;20281;-57
2022/03/10 09:43:22;;;;;;;8.10;5.17;;;;;;;5.10;41.12;100086.81;5052856;28;20190;-58
2022/03/10 09:45:51;;;;;;;7.93;6.65;;;;;;;5.06;42.11;100081.47;5050009;28;20450;-57
2022/03/10 09:48:18;;;;;;;8.07;7.10;;;;;;;5.34;42.62;100079.41;5050376;28;20197;-57
2022/03/10 09:50:46;;;;;;;10.80;7.43;;;;;;;5.38;40.38;100072.78;5052806;28;20181;-58
2022/03/10 09:53:13;;;;;;;10.87;7.77;;;;;;;5.27;42.12;100083.34;5044317;28;20200;-57
2022/03/10 09:55:40;;;;;;;10.57;7.70;;;;;;;5.42;42.04;100084.84;5052412;28;20212;-57
2022/03/10 09:58:09;;;;;;;11.47;8.40;;;;;;;5.62;41.62;100084.09;5052464;28;20283;-57
2022/03/10 10:00:36;;;;;;;7.90;6.60;;;;;;;5.77;41.78;100069.47;5050110;28;20185;-58
2022/03/10 10:03:03;;;;;;;8.20;7.40;;;;;;;5.89;41.27;100075.16;5050486;28;20451;-57
2022/03/10 10:05:32;;;;;;;10.07;5.73;;;;;;;6.01;40.81;100073.16;5053118;28;20285;-58
2022/03/10 10:08:08;;;;;;;6.87;5.73;;;;;;;6.04;40.73;100082.59;5053055;28;20195;-57
2022/03/10 10:10:36;;;;;;;5.43;4.87;;;;;;;6.06;40.35;100042.72;5033128;28;20193;-59
2022/03/10 10:13:06;;;;;;;6.90;6.20;;;;;;;6.19;39.54;100080.69;5031383;28;20472;-60
2022/03/10 10:15:43;;;;;;;6.73;6.03;;;;;;;6.12;40.32;100083.81;5032766;28;20293;-61
2022/03/10 10:18:15;;;;;;;10.60;5.67;;;;;;;6.32;39.99;100078.72;5032639;28;20287;-61
2022/03/10 10:20:47;;;;;;;7.37;5.73;;;;;;;6.28;39.87;100086.19;5032700;28;20281;-60
2022/03/10 10:23:20;;;;;;;8.47;5.77;;;;;;;5.69;43.41;100098.84;5032468;28;20209;-60
2022/03/10 10:25:51;;;;;;;6.17;5.53;;;;;;;5.49;44.35;100085.22;5032446;28;20185;-60
2022/03/10 10:28:27;;;;;;;6.00;5.43;;;;;;;5.48;44.58;100096.22;5032037;28;20445;-60
2022/03/10 10:30:57;;;;;;;6.03;5.43;;;;;;;5.40;44.70;100069.50;5032062;28;20275;-61
2022/03/10 10:33:24;;;;;;;6.53;5.80;;;;;;;5.76;43.79;100096.66;5032159;28;20297;-61
2022/03/10 10:35:51;;;;;;;8.33;5.87;;;;;;;5.85;43.46;100094.53;5031996;28;20310;-60
2022/03/10 10:38:32;;;;;;;8.50;4.70;;;;;;;5.66;42.02;100081.75;5031887;28;20501;-61
2022/03/10 10:41:24;;;;;;;6.72;6.03;;;;;;;5.91;42.36;100084.59;5031446;28;20443;-61
2022/03/10 10:43:53;;;;;;;10.90;6.03;;;;;;;6.18;41.33;100074.72;5031758;28;20196;-60
2022/03/10 10:46:24;;;;;;;6.07;5.47;;;;;;;5.97;40.67;100073.81;5032153;28;20624;-58
2022/03/10 10:48:51;;;;;;;5.30;4.80;;;;;;;6.06;40.57;100058.91;5031934;28;20197;-57
2022/03/10 10:51:30;;;;;;;5.57;4.80;;;;;;;6.02;40.20;100066.34;5032758;28;20199;-58
2022/03/10 10:53:59;;;;;;;6.33;5.20;;;;;;;5.93;39.95;100056.66;5031749;28;20205;-57
2022/03/10 10:56:28;;;;;;;5.37;4.87;;;;;;;5.98;39.14;100062.81;5038368;28;20239;-60
2022/03/10 10:58:55;;;;;;;9.33;5.83;;;;;;;5.81;40.25;100058.59;5048867;28;20188;-61
2022/03/10 11:01:31;;;;;;;7.57;5.50;;;;;;;6.32;40.45;100053.22;5045916;28;20251;-61
2022/03/10 11:03:58;;;;;;;7.90;5.80;;;;;;;6.63;38.51;100049.38;5042805;28;20284;-58
2022/03/10 11:06:25;;;;;;;6.67;5.27;;;;;;;6.86;38.82;100054.59;5044235;28;20196;-58
2022/03/10 11:08:53;;;;;;;5.27;4.70;;;;;;;6.96;38.23;100040.50;5048215;28;20743;-58
2022/03/10 11:11:22;;;;;;;8.20;5.23;;;;;;;7.07;37.37;100045.22;5049209;28;20207;-58
2022/03/10 11:13:51;;;;;;;5.70;4.80;;;;;;;7.15;36.75;100042.94;5051051;28;20269;-57
2022/03/10 11:16:19;;;;;;;9.13;5.57;;;;;;;7.33;36.44;100042.78;5050863;28;20652;-58
2022/03/10 11:18:51;;;;;;;6.77;4.63;;;;;;;7.06;35.81;100048.56;5050854;28;20203;-58
2022/03/10 11:21:57;;;;;;;6.83;5.17;;;;;;;6.01;41.28;100047.63;5043564;28;20201;-58
2022/03/10 11:24:55;;;;;;;7.30;6.03;;;;;;;5.48;48.56;100059.66;5050519;28;20188;-58
2022/03/10 11:27:30;;;;;;;7.63;5.40;;;;;;;4.33;51.63;100062.66;5049637;28;20188;-58
2022/03/10 11:30:01;;;;;;;8.77;5.90;;;;;;;3.99;52.44;100057.53;5050581;28;20222;-58
2022/03/10 11:32:29;;;;;;;8.87;6.00;;;;;;;3.68;53.98;100058.44;5048346;28;20287;-58
2022/03/10 11:34:58;;;;;;;7.70;6.07;;;;;;;3.51;54.11;100070.25;5050604;28;20211;-58
2022/03/10 11:37:52;;;;;;;6.33;5.37;;;;;;;3.60;52.45;100062.25;5047538;28;20211;-58
2022/03/10 11:40:22;;;;;;;6.03;5.28;;;;;;;3.54;49.93;100063.63;5048479;28;20450;-57
2022/03/10 11:43:01;;;;;;;5.97;5.37;;;;;;;3.89;50.16;100060.41;5047943;28;20196;-57